sensor_id;sensor_type;location;lat;lon;timestamp;pressure;altitude;pressure_sealevel;temperature
77331;BMP280;66405;48.328;7.820;2023-02-23T00:01:25;99601.72;;;12.24
77331;BMP280;66405;48.328;7.820;2023-02-23T00:03:56;99594.34;;;12.24
77331;BMP280;66405;48.328;7.820;2023-02-23T00:06:23;99598.50;;;12.25
77331;BMP280;66405;48.328;7.820;2023-02-23T00:08:49;99600.00;;;12.26
77331;BMP280;66405;48.328;7.820;2023-02-23T00:11:17;99595.78;;;12.25
77331;BMP280;66405;48.328;7.820;2023-02-23T00:13:44;99602.72;;;12.26
77331;BMP280;66405;48.328;7.820;2023-02-23T00:16:24;99594.59;;;12.26
77331;BMP280;66405;48.328;7.820;2023-02-23T00:18:56;99595.34;;;12.27
77331;BMP280;66405;48.328;7.820;2023-02-23T00:21:31;99597.06;;;12.24
77331;BMP280;66405;48.328;7.820;2023-02-23T00:24:04;99600.97;;;12.23
77331;BMP280;66405;48.328;7.820;2023-02-23T00:26:31;99599.47;;;12.22
77331;BMP280;66405;48.328;7.820;2023-02-23T00:29:20;99607.59;;;12.22
77331;BMP280;66405;48.328;7.820;2023-02-23T00:31:47;99596.75;;;12.22
77331;BMP280;66405;48.328;7.820;2023-02-23T00:34:16;99606.38;;;12.23
77331;BMP280;66405;48.328;7.820;2023-02-23T00:36:49;99608.31;;;12.23
77331;BMP280;66405;48.328;7.820;2023-02-23T00:39:15;99597.19;;;12.20
77331;BMP280;66405;48.328;7.820;2023-02-23T00:41:47;99597.66;;;12.19
77331;BMP280;66405;48.328;7.820;2023-02-23T00:44:13;99597.09;;;12.15
77331;BMP280;66405;48.328;7.820;2023-02-23T00:46:40;99598.31;;;12.14
77331;BMP280;66405;48.328;7.820;2023-02-23T00:49:08;99599.50;;;12.13
77331;BMP280;66405;48.328;7.820;2023-02-23T00:51:35;99596.81;;;12.13
77331;BMP280;66405;48.328;7.820;2023-02-23T00:54:02;99594.53;;;12.11
77331;BMP280;66405;48.328;7.820;2023-02-23T00:56:28;99596.50;;;12.11
77331;BMP280;66405;48.328;7.820;2023-02-23T00:58:53;99590.06;;;12.08
77331;BMP280;66405;48.328;7.820;2023-02-23T01:01:19;99587.81;;;12.07
77331;BMP280;66405;48.328;7.820;2023-02-23T01:03:45;99587.81;;;12.07
77331;BMP280;66405;48.328;7.820;2023-02-23T01:06:13;99582.84;;;12.05
77331;BMP280;66405;48.328;7.820;2023-02-23T01:08:44;99584.06;;;12.04
77331;BMP280;66405;48.328;7.820;2023-02-23T01:11:12;99587.25;;;12.02
77331;BMP280;66405;48.328;7.820;2023-02-23T01:13:40;99588.00;;;12.03
77331;BMP280;66405;48.328;7.820;2023-02-23T01:16:11;99583.03;;;12.01
77331;BMP280;66405;48.328;7.820;2023-02-23T01:18:38;99581.53;;;12.00
77331;BMP280;66405;48.328;7.820;2023-02-23T01:21:06;99586.66;;;11.98
77331;BMP280;66405;48.328;7.820;2023-02-23T01:23:38;99584.41;;;11.97
77331;BMP280;66405;48.328;7.820;2023-02-23T01:26:04;99585.63;;;11.96
77331;BMP280;66405;48.328;7.820;2023-02-23T01:28:30;99577.69;;;11.92
77331;BMP280;66405;48.328;7.820;2023-02-23T01:30:56;99584.59;;;11.93
77331;BMP280;66405;48.328;7.820;2023-02-23T01:33:21;99585.81;;;11.92
77331;BMP280;66405;48.328;7.820;2023-02-23T01:35:57;99579.34;;;11.90
77331;BMP280;66405;48.328;7.820;2023-02-23T01:38:22;99581.00;;;11.87
77331;BMP280;66405;48.328;7.820;2023-02-23T01:40:48;99581.00;;;11.87
77331;BMP280;66405;48.328;7.820;2023-02-23T01:43:16;99581.78;;;11.88
77331;BMP280;66405;48.328;7.820;2023-02-23T01:45:45;99572.91;;;11.87
77331;BMP280;66405;48.328;7.820;2023-02-23T01:48:17;99574.41;;;11.88
77331;BMP280;66405;48.328;7.820;2023-02-23T01:53:14;99577.56;;;11.86
77331;BMP280;66405;48.328;7.820;2023-02-23T01:55:41;99569.91;;;11.85
77331;BMP280;66405;48.328;7.820;2023-02-23T01:58:10;99562.22;;;11.83
77331;BMP280;66405;48.328;7.820;2023-02-23T02:00:46;99563.88;;;11.81
77331;BMP280;66405;48.328;7.820;2023-02-23T02:03:18;99568.09;;;11.82
77331;BMP280;66405;48.328;7.820;2023-02-23T02:05:48;99563.16;;;11.80
77331;BMP280;66405;48.328;7.820;2023-02-23T02:08:15;99570.81;;;11.82
77331;BMP280;66405;48.328;7.820;2023-02-23T02:10:41;99573.97;;;11.80
77331;BMP280;66405;48.328;7.820;2023-02-23T02:13:14;99568.00;;;11.76
77331;BMP280;66405;48.328;7.820;2023-02-23T02:16:13;99568.44;;;11.75
77331;BMP280;66405;48.328;7.820;2023-02-23T02:29:36;99557.41;;;11.63
77331;BMP280;66405;48.328;7.820;2023-02-23T02:43:36;99551.38;;;11.59
77331;BMP280;66405;48.328;7.820;2023-02-23T02:46:17;99546.91;;;11.56
77331;BMP280;66405;48.328;7.820;2023-02-23T02:48:58;99549.78;;;11.52
77331;BMP280;66405;48.328;7.820;2023-02-23T02:51:28;99540.63;;;11.50
77331;BMP280;66405;48.328;7.820;2023-02-23T02:54:18;99548.88;;;11.46
77331;BMP280;66405;48.328;7.820;2023-02-23T02:56:49;99544.13;;;11.41
77331;BMP280;66405;48.328;7.820;2023-02-23T02:59:17;99533.00;;;11.39
77331;BMP280;66405;48.328;7.820;2023-02-23T03:02:04;99535.09;;;11.35
77331;BMP280;66405;48.328;7.820;2023-02-23T03:04:48;99534.53;;;11.31
77331;BMP280;66405;48.328;7.820;2023-02-23T03:07:41;99533.78;;;11.30
77331;BMP280;66405;48.328;7.820;2023-02-23T03:10:33;99533.94;;;11.27
77331;BMP280;66405;48.328;7.820;2023-02-23T03:19:17;99530.66;;;11.23
77331;BMP280;66405;48.328;7.820;2023-02-23T03:22:17;99524.94;;;11.21
77331;BMP280;66405;48.328;7.820;2023-02-23T03:25:14;99529.34;;;11.18
77331;BMP280;66405;48.328;7.820;2023-02-23T03:28:24;99527.84;;;11.17
77331;BMP280;66405;48.328;7.820;2023-02-23T03:31:20;99527.84;;;11.17
77331;BMP280;66405;48.328;7.820;2023-02-23T03:34:24;99536.38;;;11.15
77331;BMP280;66405;48.328;7.820;2023-02-23T03:37:16;99537.16;;;11.16
77331;BMP280;66405;48.328;7.820;2023-02-23T03:40:18;99538.81;;;11.13
77331;BMP280;66405;48.328;7.820;2023-02-23T03:43:07;99538.81;;;11.13
77331;BMP280;66405;48.328;7.820;2023-02-23T03:45:55;99526.66;;;11.09
77331;BMP280;66405;48.328;7.820;2023-02-23T03:48:42;99528.41;;;11.12
77331;BMP280;66405;48.328;7.820;2023-02-23T03:51:30;99523.00;;;11.12
77331;BMP280;66405;48.328;7.820;2023-02-23T03:54:19;99524.22;;;11.11
77331;BMP280;66405;48.328;7.820;2023-02-23T03:57:07;99536.53;;;11.12
77331;BMP280;66405;48.328;7.820;2023-02-23T03:59:56;99531.13;;;11.12
77331;BMP280;66405;48.328;7.820;2023-02-23T04:02:43;99531.91;;;11.12
77331;BMP280;66405;48.328;7.820;2023-02-23T04:05:30;99532.63;;;11.13
77331;BMP280;66405;48.328;7.820;2023-02-23T04:08:17;99538.81;;;11.13
77331;BMP280;66405;48.328;7.820;2023-02-23T04:11:17;99541.50;;;11.13
77331;BMP280;66405;48.328;7.820;2023-02-23T04:14:04;99535.78;;;11.11
77331;BMP280;66405;48.328;7.820;2023-02-23T04:16:32;99533.41;;;11.13
77331;BMP280;66405;48.328;7.820;2023-02-23T04:18:57;99540.28;;;11.14
77331;BMP280;66405;48.328;7.820;2023-02-23T04:21:23;99539.25;;;11.12
77331;BMP280;66405;48.328;7.820;2023-02-23T04:23:48;99540.28;;;11.14
77331;BMP280;66405;48.328;7.820;2023-02-23T04:26:14;99538.81;;;11.13
77331;BMP280;66405;48.328;7.820;2023-02-23T04:28:39;99538.81;;;11.13
77331;BMP280;66405;48.328;7.820;2023-02-23T04:31:05;99537.31;;;11.12
77331;BMP280;66405;48.328;7.820;2023-02-23T04:33:30;99538.34;;;11.15
77331;BMP280;66405;48.328;7.820;2023-02-23T04:35:56;99542.56;;;11.16
77331;BMP280;66405;48.328;7.820;2023-02-23T04:38:21;99539.84;;;11.16
77331;BMP280;66405;48.328;7.820;2023-02-23T04:40:47;99545.25;;;11.16
77331;BMP280;66405;48.328;7.820;2023-02-23T04:43:13;99529.19;;;11.12
77331;BMP280;66405;48.328;7.820;2023-02-23T04:45:39;99540.28;;;11.14
77331;BMP280;66405;48.328;7.820;2023-02-23T04:48:05;99537.03;;;11.10
77331;BMP280;66405;48.328;7.820;2023-02-23T04:50:30;99537.03;;;11.10
77331;BMP280;66405;48.328;7.820;2023-02-23T04:52:56;99538.22;;;11.09
77331;BMP280;66405;48.328;7.820;2023-02-23T04:55:23;99536.72;;;11.08
77331;BMP280;66405;48.328;7.820;2023-02-23T04:57:50;99540.63;;;11.07
77331;BMP280;66405;48.328;7.820;2023-02-23T05:00:17;99534.47;;;11.07
77331;BMP280;66405;48.328;7.820;2023-02-23T05:02:43;99534.91;;;11.05
77331;BMP280;66405;48.328;7.820;2023-02-23T05:05:09;99532.97;;;11.06
77331;BMP280;66405;48.328;7.820;2023-02-23T05:07:35;99534.16;;;11.05
77331;BMP280;66405;48.328;7.820;2023-02-23T05:10:01;99529.50;;;11.05
77331;BMP280;66405;48.328;7.820;2023-02-23T05:12:27;99534.16;;;11.05
77331;BMP280;66405;48.328;7.820;2023-02-23T05:14:53;99531.19;;;11.02
77331;BMP280;66405;48.328;7.820;2023-02-23T05:17:18;99532.66;;;11.03
77331;BMP280;66405;48.328;7.820;2023-02-23T05:19:44;99529.22;;;11.03
77331;BMP280;66405;48.328;7.820;2023-02-23T05:22:10;99532.84;;;11.00
77331;BMP280;66405;48.328;7.820;2023-02-23T05:24:40;99525.47;;;11.00
77331;BMP280;66405;48.328;7.820;2023-02-23T05:27:09;99525.03;;;11.02
77331;BMP280;66405;48.328;7.820;2023-02-23T05:29:34;99522.47;;;10.98
77331;BMP280;66405;48.328;7.820;2023-02-23T05:32:00;99529.41;;;10.99
77331;BMP280;66405;48.328;7.820;2023-02-23T05:34:26;99529.81;;;10.98
77331;BMP280;66405;48.328;7.820;2023-02-23T05:36:52;99528.31;;;10.97
77331;BMP280;66405;48.328;7.820;2023-02-23T05:39:19;99526.06;;;10.95
77331;BMP280;66405;48.328;7.820;2023-02-23T05:41:44;99526.06;;;10.95
77331;BMP280;66405;48.328;7.820;2023-02-23T05:44:10;99526.56;;;10.94
77331;BMP280;66405;48.328;7.820;2023-02-23T05:46:35;99528.50;;;10.93
77331;BMP280;66405;48.328;7.820;2023-02-23T05:49:01;99532.13;;;10.90
77331;BMP280;66405;48.328;7.820;2023-02-23T05:51:29;99528.66;;;10.90
77331;BMP280;66405;48.328;7.820;2023-02-23T05:53:55;99531.53;;;10.86
77331;BMP280;66405;48.328;7.820;2023-02-23T05:56:21;99536.94;;;10.86
77331;BMP280;66405;48.328;7.820;2023-02-23T05:58:47;99533.91;;;10.84
77331;BMP280;66405;48.328;7.820;2023-02-23T06:01:13;99531.69;;;10.82
77331;BMP280;66405;48.328;7.820;2023-02-23T06:03:38;99532.88;;;10.81
77331;BMP280;66405;48.328;7.820;2023-02-23T06:06:04;99536.47;;;10.78
77331;BMP280;66405;48.328;7.820;2023-02-23T06:08:31;99538.88;;;10.76
77331;BMP280;66405;48.328;7.820;2023-02-23T06:10:57;99537.22;;;10.79
77331;BMP280;66405;48.328;7.820;2023-02-23T06:13:25;99541.31;;;10.74
77331;BMP280;66405;48.328;7.820;2023-02-23T06:15:51;99544.16;;;10.71
77331;BMP280;66405;48.328;7.820;2023-02-23T06:18:18;99540.22;;;10.72
77331;BMP280;66405;48.328;7.820;2023-02-23T06:20:46;99544.16;;;10.71
77331;BMP280;66405;48.328;7.820;2023-02-23T06:23:12;99540.22;;;10.72
77331;BMP280;66405;48.328;7.820;2023-02-23T06:25:38;99547.91;;;10.73
77331;BMP280;66405;48.328;7.820;2023-02-23T06:28:07;99542.94;;;10.72
77331;BMP280;66405;48.328;7.820;2023-02-23T06:30:36;99552.84;;;10.75
77331;BMP280;66405;48.328;7.820;2023-02-23T06:33:02;99552.84;;;10.75
77331;BMP280;66405;48.328;7.820;2023-02-23T06:35:28;99548.78;;;10.79
77331;BMP280;66405;48.328;7.820;2023-02-23T06:37:53;99559.59;;;10.79
77331;BMP280;66405;48.328;7.820;2023-02-23T06:40:19;99559.75;;;10.85
77331;BMP280;66405;48.328;7.820;2023-02-23T06:42:45;99560.34;;;10.89
77331;BMP280;66405;48.328;7.820;2023-02-23T06:45:11;99560.94;;;10.93
77331;BMP280;66405;48.328;7.820;2023-02-23T06:47:38;99564.97;;;10.98
77331;BMP280;66405;48.328;7.820;2023-02-23T06:50:07;99571.44;;;11.00
77331;BMP280;66405;48.328;7.820;2023-02-23T06:52:33;99568.28;;;11.02
77331;BMP280;66405;48.328;7.820;2023-02-23T06:54:58;99566.47;;;11.08
77331;BMP280;66405;48.328;7.820;2023-02-23T06:57:24;99581.31;;;11.13
77331;BMP280;66405;48.328;7.820;2023-02-23T06:59:51;99579.22;;;11.17
77331;BMP280;66405;48.328;7.820;2023-02-23T07:02:17;99577.84;;;11.22
77331;BMP280;66405;48.328;7.820;2023-02-23T07:04:45;99576.94;;;11.25
77331;BMP280;66405;48.328;7.820;2023-02-23T07:07:13;99579.03;;;11.30
77331;BMP280;66405;48.328;7.820;2023-02-23T07:09:43;99583.03;;;11.34
77331;BMP280;66405;48.328;7.820;2023-02-23T07:12:09;99581.38;;;11.37
77331;BMP280;66405;48.328;7.820;2023-02-23T07:14:35;99583.50;;;11.42
77331;BMP280;66405;48.328;7.820;2023-02-23T07:17:02;99586.63;;;11.50
77331;BMP280;66405;48.328;7.820;2023-02-23T07:19:29;99587.19;;;11.54
77331;BMP280;66405;48.328;7.820;2023-02-23T07:21:56;99597.69;;;11.61
77331;BMP280;66405;48.328;7.820;2023-02-23T07:24:22;99590.88;;;11.66
77331;BMP280;66405;48.328;7.820;2023-02-23T07:26:47;99590.28;;;11.71
77331;BMP280;66405;48.328;7.820;2023-02-23T07:29:14;99586.63;;;11.74
77331;BMP280;66405;48.328;7.820;2023-02-23T07:31:40;99594.16;;;11.79
77331;BMP280;66405;48.328;7.820;2023-02-23T07:34:06;99588.88;;;11.85
77331;BMP280;66405;48.328;7.820;2023-02-23T07:36:32;99589.25;;;11.93
77331;BMP280;66405;48.328;7.820;2023-02-23T07:38:57;99598.25;;;11.99
77331;BMP280;66405;48.328;7.820;2023-02-23T07:41:22;99599.84;;;12.06
77331;BMP280;66405;48.328;7.820;2023-02-23T07:43:48;99601.19;;;12.10
77331;BMP280;66405;48.328;7.820;2023-02-23T07:46:13;99599.22;;;12.11
77331;BMP280;66405;48.328;7.820;2023-02-23T07:48:41;99595.94;;;12.07
77331;BMP280;66405;48.328;7.820;2023-02-23T07:51:10;99605.00;;;12.03
77331;BMP280;66405;48.328;7.820;2023-02-23T07:53:36;99606.38;;;11.99
77331;BMP280;66405;48.328;7.820;2023-02-23T07:56:02;99611.50;;;11.97
77331;BMP280;66405;48.328;7.820;2023-02-23T07:58:28;99606.38;;;11.99
77331;BMP280;66405;48.328;7.820;2023-02-23T08:00:55;99608.44;;;12.04
77331;BMP280;66405;48.328;7.820;2023-02-23T08:03:23;99603.44;;;12.12
77331;BMP280;66405;48.328;7.820;2023-02-23T08:05:48;99610.31;;;12.22
77331;BMP280;66405;48.328;7.820;2023-02-23T08:08:15;99611.44;;;12.30
77331;BMP280;66405;48.328;7.820;2023-02-23T08:10:43;99602.97;;;12.37
77331;BMP280;66405;48.328;7.820;2023-02-23T08:13:08;99615.50;;;12.50
77331;BMP280;66405;48.328;7.820;2023-02-23T08:15:34;99611.97;;;12.59
77331;BMP280;66405;48.328;7.820;2023-02-23T08:17:59;99616.84;;;12.69
77331;BMP280;66405;48.328;7.820;2023-02-23T08:20:25;99613.59;;;12.80
77331;BMP280;66405;48.328;7.820;2023-02-23T08:22:55;99610.69;;;12.84
77331;BMP280;66405;48.328;7.820;2023-02-23T08:25:23;99614.97;;;12.91
77331;BMP280;66405;48.328;7.820;2023-02-23T08:27:49;99611.16;;;12.97
77331;BMP280;66405;48.328;7.820;2023-02-23T08:30:18;99613.22;;;13.02
77331;BMP280;66405;48.328;7.820;2023-02-23T08:32:46;99617.41;;;13.03
77331;BMP280;66405;48.328;7.820;2023-02-23T08:35:11;99614.38;;;12.96
77331;BMP280;66405;48.328;7.820;2023-02-23T08:37:37;99612.00;;;12.88
77331;BMP280;66405;48.328;7.820;2023-02-23T08:40:03;99617.59;;;12.85
77331;BMP280;66405;48.328;7.820;2023-02-23T08:42:30;99612.00;;;12.88
77331;BMP280;66405;48.328;7.820;2023-02-23T08:44:56;99617.09;;;12.96
77331;BMP280;66405;48.328;7.820;2023-02-23T08:47:21;99614.53;;;13.07
77331;BMP280;66405;48.328;7.820;2023-02-23T08:49:51;99614.25;;;13.20
77331;BMP280;66405;48.328;7.820;2023-02-23T08:52:19;99614.41;;;13.31
77331;BMP280;66405;48.328;7.820;2023-02-23T08:54:47;99616.81;;;13.44
77331;BMP280;66405;48.328;7.820;2023-02-23T08:57:12;99619.72;;;13.55
77331;BMP280;66405;48.328;7.820;2023-02-23T08:59:38;99619.84;;;13.67
77331;BMP280;66405;48.328;7.820;2023-02-23T09:02:12;99620.75;;;13.79
77331;BMP280;66405;48.328;7.820;2023-02-23T09:04:39;99618.69;;;13.88
77331;BMP280;66405;48.328;7.820;2023-02-23T09:07:13;99619.56;;;14.00
77331;BMP280;66405;48.328;7.820;2023-02-23T09:09:39;99627.84;;;14.12
77331;BMP280;66405;48.328;7.820;2023-02-23T09:12:04;99617.84;;;14.23
77331;BMP280;66405;48.328;7.820;2023-02-23T09:14:32;99626.13;;;14.35
77331;BMP280;66405;48.328;7.820;2023-02-23T09:16:58;99623.25;;;14.44
77331;BMP280;66405;48.328;7.820;2023-02-23T09:19:23;99624.06;;;14.50
77331;BMP280;66405;48.328;7.820;2023-02-23T09:21:52;99623.66;;;14.57
77331;BMP280;66405;48.328;7.820;2023-02-23T09:24:19;99636.81;;;14.65
77331;BMP280;66405;48.328;7.820;2023-02-23T09:26:46;99631.16;;;14.68
77331;BMP280;66405;48.328;7.820;2023-02-23T09:29:13;99635.63;;;14.71
77331;BMP280;66405;48.328;7.820;2023-02-23T09:31:38;99636.09;;;14.70
77331;BMP280;66405;48.328;7.820;2023-02-23T09:34:04;99639.03;;;14.66
77331;BMP280;66405;48.328;7.820;2023-02-23T09:36:30;99635.53;;;14.60
77331;BMP280;66405;48.328;7.820;2023-02-23T09:38:56;99635.81;;;14.62
77331;BMP280;66405;48.328;7.820;2023-02-23T09:49:56;99636.81;;;14.65
77331;BMP280;66405;48.328;7.820;2023-02-23T09:52:26;99629.94;;;14.69
77331;BMP280;66405;48.328;7.820;2023-02-23T09:54:52;99642.88;;;14.80
77331;BMP280;66405;48.328;7.820;2023-02-23T09:57:32;99632.38;;;14.93
77331;BMP280;66405;48.328;7.820;2023-02-23T10:00:01;99628.50;;;15.06
77331;BMP280;66405;48.328;7.820;2023-02-23T10:02:37;99627.91;;;15.22
77331;BMP280;66405;48.328;7.820;2023-02-23T10:05:09;99627.53;;;15.41
77331;BMP280;66405;48.328;7.820;2023-02-23T10:13:32;99632.75;;;15.93
77331;BMP280;66405;48.328;7.820;2023-02-23T10:18:56;99624.63;;;16.16
77331;BMP280;66405;48.328;7.820;2023-02-23T10:21:40;99626.66;;;16.21
77331;BMP280;66405;48.328;7.820;2023-02-23T10:24:28;99622.69;;;16.33
77331;BMP280;66405;48.328;7.820;2023-02-23T10:26:55;99623.97;;;16.55
77331;BMP280;66405;48.328;7.820;2023-02-23T10:29:30;99626.72;;;16.78
77331;BMP280;66405;48.328;7.820;2023-02-23T10:34:44;99624.66;;;17.46
77331;BMP280;66405;48.328;7.820;2023-02-23T10:37:11;99618.00;;;17.94
77331;BMP280;66405;48.328;7.820;2023-02-23T10:39:39;99624.28;;;18.25
77331;BMP280;66405;48.328;7.820;2023-02-23T10:42:11;99620.34;;;18.51
77331;BMP280;66405;48.328;7.820;2023-02-23T10:44:44;99614.66;;;18.49
77331;BMP280;66405;48.328;7.820;2023-02-23T10:47:18;99607.47;;;18.46
77331;BMP280;66405;48.328;7.820;2023-02-23T10:49:47;99612.94;;;18.76
77331;BMP280;66405;48.328;7.820;2023-02-23T10:52:28;99607.56;;;19.20
77331;BMP280;66405;48.328;7.820;2023-02-23T10:54:54;99609.06;;;19.78
77331;BMP280;66405;48.328;7.820;2023-02-23T10:57:26;99609.66;;;20.41
77331;BMP280;66405;48.328;7.820;2023-02-23T11:02:36;99610.59;;;21.51
77331;BMP280;66405;48.328;7.820;2023-02-23T11:05:03;99609.97;;;21.58
77331;BMP280;66405;48.328;7.820;2023-02-23T11:07:31;99603.56;;;21.42
77331;BMP280;66405;48.328;7.820;2023-02-23T11:10:23;99607.03;;;21.43
77331;BMP280;66405;48.328;7.820;2023-02-23T11:12:51;99606.53;;;21.44
77331;BMP280;66405;48.328;7.820;2023-02-23T11:15:26;99603.34;;;21.40
77331;BMP280;66405;48.328;7.820;2023-02-23T11:17:56;99610.13;;;21.39
77331;BMP280;66405;48.328;7.820;2023-02-23T11:20:28;99600.16;;;21.49
77331;BMP280;66405;48.328;7.820;2023-02-23T11:22:54;99603.47;;;21.34
77331;BMP280;66405;48.328;7.820;2023-02-23T11:25:27;99598.91;;;21.37
77331;BMP280;66405;48.328;7.820;2023-02-23T11:27:54;99604.31;;;21.16
77331;BMP280;66405;48.328;7.820;2023-02-23T11:30:29;99595.78;;;20.79
77331;BMP280;66405;48.328;7.820;2023-02-23T11:33:01;99598.56;;;20.34
77331;BMP280;66405;48.328;7.820;2023-02-23T11:35:35;99591.63;;;20.14
77331;BMP280;66405;48.328;7.820;2023-02-23T11:41:05;99589.56;;;20.01
77331;BMP280;66405;48.328;7.820;2023-02-23T11:43:31;99586.84;;;19.82
77331;BMP280;66405;48.328;7.820;2023-02-23T11:45:59;99572.25;;;19.93
77331;BMP280;66405;48.328;7.820;2023-02-23T11:48:33;99582.66;;;20.13
77331;BMP280;66405;48.328;7.820;2023-02-23T11:50:59;99585.88;;;20.31
77331;BMP280;66405;48.328;7.820;2023-02-23T11:53:38;99585.47;;;20.40
77331;BMP280;66405;48.328;7.820;2023-02-23T11:56:05;99588.59;;;20.63
77331;BMP280;66405;48.328;7.820;2023-02-23T11:58:43;99580.88;;;20.61
77331;BMP280;66405;48.328;7.820;2023-02-23T12:01:14;99588.34;;;20.61
77331;BMP280;66405;48.328;7.820;2023-02-23T12:03:47;99582.25;;;20.68
77331;BMP280;66405;48.328;7.820;2023-02-23T12:06:36;99579.28;;;20.79
77331;BMP280;66405;48.328;7.820;2023-02-23T12:09:11;99575.28;;;20.67
77331;BMP280;66405;48.328;7.820;2023-02-23T12:11:47;99584.31;;;20.49
77331;BMP280;66405;48.328;7.820;2023-02-23T12:14:44;99575.91;;;20.14
77331;BMP280;66405;48.328;7.820;2023-02-23T12:17:26;99558.97;;;19.97
77331;BMP280;66405;48.328;7.820;2023-02-23T12:20:05;99558.69;;;19.81
77331;BMP280;66405;48.328;7.820;2023-02-23T12:22:42;99563.91;;;19.66
77331;BMP280;66405;48.328;7.820;2023-02-23T12:28:12;99556.34;;;20.04
77331;BMP280;66405;48.328;7.820;2023-02-23T12:31:01;99556.66;;;20.33
77331;BMP280;66405;48.328;7.820;2023-02-23T12:41:38;99544.31;;;22.75
77331;BMP280;66405;48.328;7.820;2023-02-23T12:46:49;99550.28;;;23.85
77331;BMP280;66405;48.328;7.820;2023-02-23T12:52:21;99542.72;;;24.09
77331;BMP280;66405;48.328;7.820;2023-02-23T12:54:50;99544.59;;;23.83
77331;BMP280;66405;48.328;7.820;2023-02-23T12:57:34;99536.63;;;23.33
77331;BMP280;66405;48.328;7.820;2023-02-23T13:11:38;99535.94;;;21.60
77331;BMP280;66405;48.328;7.820;2023-02-23T13:14:22;99543.81;;;21.43
77331;BMP280;66405;48.328;7.820;2023-02-23T13:16:54;99541.13;;;21.29
77331;BMP280;66405;48.328;7.820;2023-02-23T13:19:40;99541.41;;;21.26
77331;BMP280;66405;48.328;7.820;2023-02-23T13:24:50;99533.66;;;21.03
77331;BMP280;66405;48.328;7.820;2023-02-23T13:27:26;99538.94;;;20.88
77331;BMP280;66405;48.328;7.820;2023-02-23T13:29:54;99536.63;;;20.78
77331;BMP280;66405;48.328;7.820;2023-02-23T13:32:28;99532.28;;;20.56
77331;BMP280;66405;48.328;7.820;2023-02-23T13:35:00;99537.97;;;20.45
77331;BMP280;66405;48.328;7.820;2023-02-23T13:37:32;99538.78;;;20.13
77331;BMP280;66405;48.328;7.820;2023-02-23T13:40:13;99536.22;;;20.02
77331;BMP280;66405;48.328;7.820;2023-02-23T13:46:11;99538.41;;;19.33
77331;BMP280;66405;48.328;7.820;2023-02-23T13:48:59;99527.28;;;19.25
77331;BMP280;66405;48.328;7.820;2023-02-23T13:51:41;99530.03;;;19.25
77331;BMP280;66405;48.328;7.820;2023-02-23T13:56:52;99524.44;;;19.56
77331;BMP280;66405;48.328;7.820;2023-02-23T13:59:29;99527.41;;;19.90
77331;BMP280;66405;48.328;7.820;2023-02-23T14:01:59;99523.72;;;20.33
77331;BMP280;66405;48.328;7.820;2023-02-23T14:04:28;99523.19;;;20.48
77331;BMP280;66405;48.328;7.820;2023-02-23T14:07:13;99519.41;;;20.65
77331;BMP280;66405;48.328;7.820;2023-02-23T14:09:48;99525.53;;;20.84
77331;BMP280;66405;48.328;7.820;2023-02-23T14:12:40;99520.75;;;21.11
77331;BMP280;66405;48.328;7.820;2023-02-23T14:18:33;99519.84;;;22.06
77331;BMP280;66405;48.328;7.820;2023-02-23T14:21:11;99523.53;;;22.09
77331;BMP280;66405;48.328;7.820;2023-02-23T14:23:48;99515.28;;;21.88
77331;BMP280;66405;48.328;7.820;2023-02-23T14:29:21;99523.09;;;21.42
77331;BMP280;66405;48.328;7.820;2023-02-23T14:34:58;99510.16;;;20.81
77331;BMP280;66405;48.328;7.820;2023-02-23T14:37:34;99517.31;;;20.57
77331;BMP280;66405;48.328;7.820;2023-02-23T14:40:13;99518.53;;;20.30
77331;BMP280;66405;48.328;7.820;2023-02-23T14:42:40;99522.19;;;20.05
77331;BMP280;66405;48.328;7.820;2023-02-23T14:45:22;99519.28;;;19.84
77331;BMP280;66405;48.328;7.820;2023-02-23T14:47:56;99520.78;;;19.66
77331;BMP280;66405;48.328;7.820;2023-02-23T14:50:24;99520.63;;;19.59
77331;BMP280;66405;48.328;7.820;2023-02-23T14:52:54;99515.75;;;19.51
77331;BMP280;66405;48.328;7.820;2023-02-23T14:55:22;99522.84;;;19.41
77331;BMP280;66405;48.328;7.820;2023-02-23T14:57:49;99518.09;;;19.23
77331;BMP280;66405;48.328;7.820;2023-02-23T15:05:33;99522.41;;;18.74
77331;BMP280;66405;48.328;7.820;2023-02-23T15:08:05;99519.88;;;18.76
77331;BMP280;66405;48.328;7.820;2023-02-23T15:13:00;99514.25;;;18.93
77331;BMP280;66405;48.328;7.820;2023-02-23T15:15:31;99522.22;;;19.35
77331;BMP280;66405;48.328;7.820;2023-02-23T15:17:59;99524.78;;;19.65
77331;BMP280;66405;48.328;7.820;2023-02-23T15:20:27;99528.63;;;19.76
77331;BMP280;66405;48.328;7.820;2023-02-23T15:22:57;99532.91;;;19.90
77331;BMP280;66405;48.328;7.820;2023-02-23T15:25:32;99524.94;;;20.05
77331;BMP280;66405;48.328;7.820;2023-02-23T15:27:58;99532.75;;;20.15
77331;BMP280;66405;48.328;7.820;2023-02-23T15:30:31;99528.22;;;20.17
77331;BMP280;66405;48.328;7.820;2023-02-23T15:35:26;99537.94;;;19.86
77331;BMP280;66405;48.328;7.820;2023-02-23T15:37:52;99533.22;;;19.67
77331;BMP280;66405;48.328;7.820;2023-02-23T15:40:21;99531.88;;;19.55
77331;BMP280;66405;48.328;7.820;2023-02-23T15:42:56;99535.16;;;19.34
77331;BMP280;66405;48.328;7.820;2023-02-23T15:48:00;99528.44;;;18.92
77331;BMP280;66405;48.328;7.820;2023-02-23T15:50:29;99527.72;;;18.67
77331;BMP280;66405;48.328;7.820;2023-02-23T15:53:05;99520.66;;;18.46
77331;BMP280;66405;48.328;7.820;2023-02-23T15:55:38;99523.84;;;18.26
77331;BMP280;66405;48.328;7.820;2023-02-23T15:58:15;99517.44;;;18.12
77331;BMP280;66405;48.328;7.820;2023-02-23T16:00:43;99522.00;;;18.04
77331;BMP280;66405;48.328;7.820;2023-02-23T16:03:29;99518.34;;;17.96
77331;BMP280;66405;48.328;7.820;2023-02-23T16:06:16;99516.69;;;17.81
77331;BMP280;66405;48.328;7.820;2023-02-23T16:09:10;99506.84;;;17.67
77331;BMP280;66405;48.328;7.820;2023-02-23T16:17:20;99517.25;;;17.15
77331;BMP280;66405;48.328;7.820;2023-02-23T16:19:48;99514.31;;;16.96
77331;BMP280;66405;48.328;7.820;2023-02-23T16:22:19;99521.03;;;16.84
77331;BMP280;66405;48.328;7.820;2023-02-23T16:24:53;99522.28;;;16.66
77331;BMP280;66405;48.328;7.820;2023-02-23T16:27:22;99517.59;;;16.55
77331;BMP280;66405;48.328;7.820;2023-02-23T16:29:55;99523.81;;;16.44
77331;BMP280;66405;48.328;7.820;2023-02-23T16:32:21;99528.28;;;16.36
77331;BMP280;66405;48.328;7.820;2023-02-23T16:34:54;99528.28;;;16.25